This is the latest recevied weather packets stored in our database for station/object VA7NEZ. If no packets are shown the sender has not sent any weather packets the latest 10 day(s).
| Time | Temp. | Humidity | Pressure | Rain* | Wind** | Luminosity | Snow |
|---|---|---|---|---|---|---|---|
| 1777616551 | 12.78° C | 53% | 1016.8 hPa | 0 mm | - | - | - |
| 1777615426 | 0° C | 100% | 1016.7 hPa | 0 mm | - | - | - |
| 1777614914 | 0° C | 100% | 1016.6 hPa | 0 mm | - | - | - |
| 1777614321 | 0° C | 100% | 1016.7 hPa | 0 mm | - | - | - |
| 1777613775 | 0° C | 100% | 1016.7 hPa | 0 mm | - | - | - |
| 1777613201 | 0° C | 100% | 1016.6 hPa | 0 mm | - | - | - |
| 1777612616 | 0° C | 100% | 1016.5 hPa | 0 mm | - | - | - |
| 1777612037 | 0° C | 100% | 1016.6 hPa | 0 mm | - | - | - |
| 1777611011 | 0° C | 100% | 1016.4 hPa | 0 mm | - | - | - |
| 1777610486 | 15° C | 51% | 1016.2 hPa | 0 mm | - | - | - |
| 1777609952 | 0° C | 100% | 1016.3 hPa | 0 mm | - | - | - |
| 1777609456 | 0° C | 100% | 1016.3 hPa | 0 mm | - | - | - |
| 1777608941 | 15.56° C | 49% | 1016.2 hPa | 0 mm | - | - | - |
| 1777608338 | 16.11° C | 50% | 1016.2 hPa | 0 mm | - | - | - |
| 1777607841 | 16.11° C | 48% | 1015.9 hPa | 0 mm | - | - | - |
| 1777607255 | 16.67° C | 47% | 1015.9 hPa | 0 mm | - | - | - |
| 1777606694 | 0° C | 100% | 1015.9 hPa | 0 mm | - | - | - |
| 1777606104 | 17.22° C | 46% | 1015.7 hPa | 0 mm | - | - | - |
| 1777605501 | 17.78° C | 45% | 1015.5 hPa | 0 mm | - | - | - |
| 1777604964 | 18.33° C | 42% | 1015.5 hPa | 0 mm | - | - | - |
| 1777604456 | 18.33° C | 42% | 1015.5 hPa | 0 mm | - | - | - |
| 1777603936 | 18.89° C | 42% | 1015.5 hPa | 0 mm | - | - | - |
| 1777603456 | 19.44° C | 39% | 1015.4 hPa | 0 mm | - | - | - |
| 1777602859 | 0° C | 100% | 1015.6 hPa | 0 mm | - | - | - |
| 1777602323 | 20.56° C | 37% | 1015.6 hPa | 0 mm | - | - | - |
* Rain latest hour (hover to see other rain measurements)
** Current wind speed in m/s (hover to see current wind gust speed)